aviador You're here:

KRIW Decoded Metar

RIVERTON in WY, USA
Report Time2017-05-23 19:53:00
UTC Time2017-05-23 20:32:08
Flight Rules vfr VFR
WindCalm
Visibility9999 m
Phenomena:N/A
Clouds:N/A
Expected CloudBase > 8,000 ft AGL from Temp-Dew spread
CeilingNone
Temp17°C (ISA +13)
Dew Point-3°C (25% RH)
AAT14.6°C
QNH1022 hPa
Density Alt6,854 ft
Elevation5,568 ft
Report Wrong Elevation
Raw Report
KRIW 231953Z AUTO 00000KT 10SM CLR 17/M03 A3018 RMK AO2 SLP191
T01671028=

Extra information for KRIW:More info

Metar Taf Metar & Taf Last 4 Metars F.Rules Stats Wind Profile Meteogram Temp Stats Airport Information Weather charts Add Link Nearby VenuesMetar ALERT Operation Metar Decoded Social comments

AIRNAV info for KRIW